Time;durP1;ratioP1;P1;durP2;ratioP2;P2;SDS_P1;SDS_P2;PMS_P1;PMS_P2;Temp;Humidity;BMP_temperature;BMP_pressure;BME280_temperature;BME280_humidity;BME280_pressure;Samples;Min_cycle;Max_cycle;Signal;HPM_P1;HPM_P2
2022/05/24 00:02:36;;;;;;;6.85;2.88;;;;;;;;;;6273708;28;20035;-82
2022/05/24 00:05:37;;;;;;;5.72;2.17;;;;;;;;;;6274469;28;20396;-82
2022/05/24 00:08:37;;;;;;;4.72;2.38;;;;;;;;;;6274164;28;20100;-82
2022/05/24 00:11:37;;;;;;;2.97;2.00;;;;;;;;;;6268178;28;20020;-83
2022/05/24 00:18:16;;;;;;;3.28;2.00;;;;;;;;;;6273354;28;20264;-83
2022/05/24 00:21:16;;;;;;;5.72;2.72;;;;;;;;;;6271230;28;20078;-82
2022/05/24 00:24:17;;;;;;;5.03;2.38;;;;;;;;;;6273450;28;20029;-82
2022/05/24 00:27:17;;;;;;;6.70;2.53;;;;;;;;;;6273122;28;20032;-83
2022/05/24 00:30:18;;;;;;;3.77;2.20;;;;;;;;;;6273394;28;20282;-82
2022/05/24 00:33:18;;;;;;;6.88;2.10;;;;;;;;;;6278092;28;20735;-83
2022/05/24 00:36:18;;;;;;;3.03;2.05;;;;;;;;;;6276579;28;20029;-82
2022/05/24 00:39:19;;;;;;;4.70;2.47;;;;;;;;;;6275886;28;20028;-82
2022/05/24 00:42:21;;;;;;;4.97;2.70;;;;;;;;;;6276576;28;20028;-82
2022/05/24 00:45:29;;;;;;;4.38;2.80;;;;;;;;;;6266780;28;20035;-82
2022/05/24 00:48:35;;;;;;;7.28;2.90;;;;;;;;;;6277339;28;20021;-83
2022/05/24 00:51:41;;;;;;;7.03;2.85;;;;;;;;;;6277278;28;20508;-83
2022/05/24 00:54:42;;;;;;;8.48;3.05;;;;;;;;;;6277104;28;20013;-82
2022/05/24 00:57:46;;;;;;;10.18;2.92;;;;;;;;;;6271235;28;20028;-83
2022/05/24 01:00:46;;;;;;;14.60;4.57;;;;;;;;;;6276819;28;20078;-82
2022/05/24 01:03:47;;;;;;;3.58;2.35;;;;;;;;;;6273772;28;20021;-82
2022/05/24 01:06:48;;;;;;;3.97;2.47;;;;;;;;;;6277891;28;20021;-82
2022/05/24 01:10:09;;;;;;;8.25;2.58;;;;;;;;;;6276667;28;20279;-82
2022/05/24 01:13:14;;;;;;;9.70;2.75;;;;;;;;;;6277514;28;20025;-82
2022/05/24 01:16:15;;;;;;;12.68;3.47;;;;;;;;;;6276625;28;20353;-82
2022/05/24 01:19:35;;;;;;;4.72;2.70;;;;;;;;;;6276511;28;20060;-82
2022/05/24 01:22:35;;;;;;;7.57;3.17;;;;;;;;;;6274885;28;20024;-82
2022/05/24 01:25:39;;;;;;;7.10;3.40;;;;;;;;;;6275774;28;20017;-82
2022/05/24 01:28:49;;;;;;;8.98;2.97;;;;;;;;;;6275798;28;20025;-82
2022/05/24 01:38:29;;;;;;;5.95;2.75;;;;;;;;;;6275880;28;20060;-82
2022/05/24 01:41:30;;;;;;;6.55;2.72;;;;;;;;;;6275023;28;20083;-83
2022/05/24 01:44:49;;;;;;;4.38;1.90;;;;;;;;;;6274943;28;20373;-83
2022/05/24 01:47:52;;;;;;;6.13;2.47;;;;;;;;;;6275298;28;20129;-82
2022/05/24 01:50:54;;;;;;;4.68;2.28;;;;;;;;;;6276236;28;20589;-82
2022/05/24 01:53:56;;;;;;;7.32;2.95;;;;;;;;;;6274961;28;20105;-82
2022/05/24 01:57:05;;;;;;;3.85;1.77;;;;;;;;;;6273521;28;20082;-82
2022/05/24 02:00:07;;;;;;;4.22;1.88;;;;;;;;;;6275059;28;20535;-82
2022/05/24 02:03:08;;;;;;;2.80;2.10;;;;;;;;;;6274771;28;20029;-82
2022/05/24 02:06:28;;;;;;;6.17;2.17;;;;;;;;;;6276140;28;20044;-82
2022/05/24 02:09:29;;;;;;;2.95;2.42;;;;;;;;;;6262179;28;20272;-82
2022/05/24 02:12:32;;;;;;;3.55;1.90;;;;;;;;;;6274290;28;20040;-82
2022/05/24 02:15:35;;;;;;;4.38;1.88;;;;;;;;;;6275356;28;20017;-82
2022/05/24 02:18:39;;;;;;;6.82;2.70;;;;;;;;;;6273765;28;20044;-82
2022/05/24 02:21:40;;;;;;;6.10;2.30;;;;;;;;;;6274975;28;20058;-83
2022/05/24 02:24:40;;;;;;;4.57;2.38;;;;;;;;;;6273423;28;20431;-82
2022/05/24 02:27:43;;;;;;;4.70;1.90;;;;;;;;;;6274178;28;20021;-82
2022/05/24 02:30:45;;;;;;;5.53;2.50;;;;;;;;;;6274934;28;20290;-82
2022/05/24 02:33:46;;;;;;;4.18;2.30;;;;;;;;;;6273303;28;20024;-83
2022/05/24 02:36:46;;;;;;;3.83;2.25;;;;;;;;;;6274815;28;20017;-82
2022/05/24 02:43:05;;;;;;;3.88;2.28;;;;;;;;;;6275386;28;20029;-82
2022/05/24 02:46:06;;;;;;;4.43;2.73;;;;;;;;;;6273712;28;20067;-82
2022/05/24 02:49:10;;;;;;;3.80;2.85;;;;;;;;;;6273522;28;20651;-82
2022/05/24 02:52:10;;;;;;;5.53;2.88;;;;;;;;;;6257350;28;20017;-82
2022/05/24 02:55:11;;;;;;;3.50;2.47;;;;;;;;;;6272180;28;20020;-82
2022/05/24 02:58:12;;;;;;;4.15;3.30;;;;;;;;;;6274772;28;20332;-83
2022/05/24 03:01:18;;;;;;;5.50;2.70;;;;;;;;;;6273555;28;20013;-82
2022/05/24 03:04:18;;;;;;;4.80;2.30;;;;;;;;;;6273139;28;20021;-83
2022/05/24 03:10:37;;;;;;;4.55;3.08;;;;;;;;;;6275723;28;20060;-83
2022/05/24 03:16:57;;;;;;;5.28;2.97;;;;;;;;;;6277977;28;20265;-82
2022/05/24 03:19:57;;;;;;;4.73;2.87;;;;;;;;;;6276313;28;20116;-82
2022/05/24 03:22:57;;;;;;;5.53;2.90;;;;;;;;;;6278524;28;20323;-82
2022/05/24 03:25:57;;;;;;;5.60;2.97;;;;;;;;;;6288295;28;20027;-83
2022/05/24 03:28:58;;;;;;;4.50;3.42;;;;;;;;;;6276235;28;20370;-82
2022/05/24 03:31:58;;;;;;;6.72;3.45;;;;;;;;;;6274962;28;20024;-82
2022/05/24 03:35:01;;;;;;;6.97;3.33;;;;;;;;;;6274353;28;20021;-82
2022/05/24 03:38:01;;;;;;;5.60;2.60;;;;;;;;;;6273430;28;20251;-82
2022/05/24 03:41:01;;;;;;;6.82;2.95;;;;;;;;;;6273125;28;20025;-82
2022/05/24 03:44:02;;;;;;;4.15;2.67;;;;;;;;;;6272810;28;20024;-82
2022/05/24 03:47:04;;;;;;;5.13;3.45;;;;;;;;;;6274592;28;20053;-82
2022/05/24 03:50:05;;;;;;;4.32;2.58;;;;;;;;;;6272821;28;20404;-82
2022/05/24 03:53:06;;;;;;;4.75;2.80;;;;;;;;;;6271204;28;20043;-81
2022/05/24 03:56:06;;;;;;;5.38;3.03;;;;;;;;;;6273999;28;20021;-81
2022/05/24 03:59:06;;;;;;;5.82;2.97;;;;;;;;;;6273737;28;20033;-82
2022/05/24 04:02:07;;;;;;;4.57;3.10;;;;;;;;;;6273139;28;20025;-81
2022/05/24 04:05:07;;;;;;;7.20;4.68;;;;;;;;;;6272575;28;20259;-82
2022/05/24 04:08:08;;;;;;;4.00;3.05;;;;;;;;;;6278953;28;20551;-82
2022/05/24 04:11:09;;;;;;;8.75;3.95;;;;;;;;;;6277308;28;20009;-82
2022/05/24 04:14:09;;;;;;;5.75;3.17;;;;;;;;;;6278508;28;20017;-82
2022/05/24 04:17:10;;;;;;;8.17;3.37;;;;;;;;;;6280603;28;20481;-83
2022/05/24 04:20:10;;;;;;;5.13;3.13;;;;;;;;;;6278505;28;20287;-83
2022/05/24 04:23:11;;;;;;;5.78;2.95;;;;;;;;;;6279984;28;20260;-83
2022/05/24 04:26:11;;;;;;;7.47;2.75;;;;;;;;;;6278004;28;20472;-82
2022/05/24 04:29:12;;;;;;;7.07;3.93;;;;;;;;;;6282561;28;20021;-83
2022/05/24 04:32:12;;;;;;;4.47;3.10;;;;;;;;;;6279654;28;20259;-81
2022/05/24 04:35:13;;;;;;;8.20;2.92;;;;;;;;;;6281496;28;20020;-82
2022/05/24 04:38:13;;;;;;;6.57;3.50;;;;;;;;;;6281036;28;20689;-81
2022/05/24 04:44:32;;;;;;;7.93;3.20;;;;;;;;;;6282268;28;20081;-82
2022/05/24 04:47:32;;;;;;;5.63;2.85;;;;;;;;;;6275030;28;20093;-82
2022/05/24 04:50:33;;;;;;;5.93;3.15;;;;;;;;;;6271830;28;20016;-82
2022/05/24 04:53:33;;;;;;;5.63;3.08;;;;;;;;;;6264151;28;20033;-82
2022/05/24 04:56:34;;;;;;;4.63;2.97;;;;;;;;;;6269894;28;20124;-82
2022/05/24 04:59:34;;;;;;;10.18;3.97;;;;;;;;;;6278128;28;20294;-82
2022/05/24 05:02:34;;;;;;;4.85;3.08;;;;;;;;;;6272120;28;20026;-82
2022/05/24 05:05:35;;;;;;;6.03;3.10;;;;;;;;;;6273634;28;20071;-83
2022/05/24 05:08:35;;;;;;;5.30;3.08;;;;;;;;;;6278014;28;20279;-82
2022/05/24 05:11:35;;;;;;;7.07;2.77;;;;;;;;;;6277849;28;20063;-82
2022/05/24 05:14:36;;;;;;;7.38;3.38;;;;;;;;;;6278206;28;20293;-82
2022/05/24 05:17:37;;;;;;;4.47;2.70;;;;;;;;;;6269203;28;20522;-82
2022/05/24 05:20:41;;;;;;;11.27;3.40;;;;;;;;;;6272136;28;20074;-82
2022/05/24 05:23:42;;;;;;;8.50;3.92;;;;;;;;;;6267876;28;20032;-83
2022/05/24 05:26:42;;;;;;;8.90;3.72;;;;;;;;;;6278533;28;20021;-83
2022/05/24 05:33:02;;;;;;;8.23;4.32;;;;;;;;;;6272938;28;20493;-82
2022/05/24 05:36:03;;;;;;;8.40;3.35;;;;;;;;;;6272437;28;20028;-82
2022/05/24 05:39:03;;;;;;;6.78;3.25;;;;;;;;;;6272015;28;20025;-82
2022/05/24 05:42:04;;;;;;;9.25;4.13;;;;;;;;;;6277390;28;20515;-82
2022/05/24 05:45:06;;;;;;;8.70;3.60;;;;;;;;;;6277748;28;20075;-82
2022/05/24 05:48:06;;;;;;;7.80;4.10;;;;;;;;;;6275188;28;20025;-82
2022/05/24 05:51:07;;;;;;;7.63;3.38;;;;;;;;;;6276245;28;20028;-82
2022/05/24 05:54:08;;;;;;;5.40;3.27;;;;;;;;;;6275321;28;20033;-83
2022/05/24 05:57:11;;;;;;;5.88;3.28;;;;;;;;;;6273708;28;20027;-82
2022/05/24 06:00:11;;;;;;;6.88;3.25;;;;;;;;;;6262065;28;20080;-82
2022/05/24 06:03:12;;;;;;;4.85;2.88;;;;;;;;;;6267766;28;20058;-82
2022/05/24 06:06:15;;;;;;;5.73;2.83;;;;;;;;;;6266077;28;20100;-82
2022/05/24 06:09:15;;;;;;;8.35;2.67;;;;;;;;;;6264966;28;20280;-82
2022/05/24 06:12:15;;;;;;;8.90;2.90;;;;;;;;;;6275462;28;20028;-83
2022/05/24 06:15:16;;;;;;;4.47;2.53;;;;;;;;;;6279211;28;20071;-83
2022/05/24 06:18:16;;;;;;;9.52;3.00;;;;;;;;;;6268307;28;20022;-82
2022/05/24 06:21:16;;;;;;;8.55;3.20;;;;;;;;;;6260307;28;20025;-82
2022/05/24 06:24:16;;;;;;;6.77;3.00;;;;;;;;;;6279156;28;20487;-82
2022/05/24 06:27:21;;;;;;;12.17;3.73;;;;;;;;;;6266485;28;20025;-83
2022/05/24 06:30:21;;;;;;;7.55;4.10;;;;;;;;;;6274158;28;20028;-83
2022/05/24 06:33:22;;;;;;;8.02;4.13;;;;;;;;;;6272396;28;20025;-83
2022/05/24 06:36:22;;;;;;;10.93;5.27;;;;;;;;;;6263532;28;20477;-83
2022/05/24 06:39:23;;;;;;;10.67;5.03;;;;;;;;;;6263357;28;20018;-83
2022/05/24 06:42:23;;;;;;;10.20;5.88;;;;;;;;;;6278884;28;20079;-83
2022/05/24 06:45:23;;;;;;;12.88;7.70;;;;;;;;;;6274986;28;20005;-81
2022/05/24 06:48:24;;;;;;;13.10;5.63;;;;;;;;;;6269442;28;20029;-82
2022/05/24 06:51:24;;;;;;;8.30;3.83;;;;;;;;;;6274068;28;20017;-82
2022/05/24 06:54:24;;;;;;;12.93;5.83;;;;;;;;;;6272083;28;20018;-82
2022/05/24 06:57:25;;;;;;;9.55;5.40;;;;;;;;;;6288150;28;20021;-81
2022/05/24 07:03:45;;;;;;;4.65;2.60;;;;;;;;;;6278149;28;20029;-83
2022/05/24 07:06:45;;;;;;;5.40;3.13;;;;;;;;;;6277184;28;20017;-83
2022/05/24 07:09:45;;;;;;;6.07;2.78;;;;;;;;;;6276602;28;20334;-83
2022/05/24 07:12:46;;;;;;;3.77;2.40;;;;;;;;;;6270481;28;20014;-81
2022/05/24 07:15:47;;;;;;;7.60;3.13;;;;;;;;;;6274542;28;20013;-82
2022/05/24 07:18:47;;;;;;;;;;;;;;;;;;6276786;28;20051;-82
2022/05/24 07:21:48;;;;;;;7.40;3.35;;;;;;;;;;6279205;28;19909;-83
2022/05/24 07:24:50;;;;;;;4.73;2.83;;;;;;;;;;6288137;28;20032;-83
2022/05/24 07:27:50;;;;;;;9.60;4.40;;;;;;;;;;6283191;28;20591;-83
2022/05/24 07:30:50;;;;;;;7.37;3.13;;;;;;;;;;6272733;28;20017;-83
2022/05/24 07:33:50;;;;;;;10.23;5.03;;;;;;;;;;6269810;28;20555;-83
2022/05/24 07:36:50;;;;;;;7.10;3.07;;;;;;;;;;6272893;28;20430;-83
2022/05/24 07:46:29;;;;;;;6.07;3.47;;;;;;;;;;6273732;28;20396;-83
2022/05/24 07:49:29;;;;;;;7.73;4.47;;;;;;;;;;6263183;28;20054;-83
2022/05/24 07:52:29;;;;;;;5.60;3.57;;;;;;;;;;6269061;28;20008;-83
2022/05/24 07:55:30;;;;;;;6.57;3.40;;;;;;;;;;6264269;28;20092;-83
2022/05/24 07:58:30;;;;;;;5.20;3.53;;;;;;;;;;6258672;28;20591;-83
2022/05/24 08:01:30;;;;;;;7.03;3.30;;;;;;;;;;6270532;28;20059;-83
2022/05/24 08:04:30;;;;;;;7.10;3.37;;;;;;;;;;6271635;28;20017;-83
2022/05/24 08:07:31;;;;;;;6.43;3.20;;;;;;;;;;6272064;28;20036;-83
2022/05/24 08:10:32;;;;;;;8.23;3.57;;;;;;;;;;6263438;28;20047;-82
2022/05/24 08:13:32;;;;;;;7.80;3.43;;;;;;;;;;6256869;28;20025;-83
2022/05/24 08:16:33;;;;;;;5.23;3.23;;;;;;;;;;6263573;28;20473;-83
2022/05/24 08:19:33;;;;;;;6.70;3.73;;;;;;;;;;6258148;28;20040;-83
2022/05/24 08:22:33;;;;;;;10.83;3.90;;;;;;;;;;6263625;28;20017;-84
2022/05/24 08:25:33;;;;;;;10.47;3.77;;;;;;;;;;6261106;28;20033;-82
2022/05/24 08:28:34;;;;;;;6.90;3.17;;;;;;;;;;6262676;28;20025;-83
2022/05/24 08:31:34;;;;;;;7.03;3.30;;;;;;;;;;6264592;28;20469;-83
2022/05/24 08:34:35;;;;;;;7.50;3.27;;;;;;;;;;6258398;28;20468;-83
2022/05/24 08:37:35;;;;;;;10.90;3.60;;;;;;;;;;6263571;28;20020;-83
2022/05/24 08:40:37;;;;;;;7.50;3.97;;;;;;;;;;6260009;28;20021;-83
2022/05/24 08:43:37;;;;;;;;;;;;;;;;;;6270412;28;20525;-83
2022/05/24 08:49:57;;;;;;;6.00;3.83;;;;;;;;;;6267206;28;20796;-83
2022/05/24 08:53:04;;;;;;;6.17;3.00;;;;;;;;;;6267406;28;20016;-83
2022/05/24 08:56:06;;;;;;;7.35;3.78;;;;;;;;;;6265607;28;20021;-83
2022/05/24 08:59:16;;;;;;;8.05;3.67;;;;;;;;;;6266727;28;20703;-83
2022/05/24 09:02:17;;;;;;;6.85;3.80;;;;;;;;;;6264843;28;20021;-82
2022/05/24 09:05:23;;;;;;;5.53;2.70;;;;;;;;;;6275111;28;20547;-81
2022/05/24 09:08:26;;;;;;;6.65;3.00;;;;;;;;;;6276623;28;20017;-83
2022/05/24 09:11:32;;;;;;;7.45;3.78;;;;;;;;;;6275451;28;20021;-84
2022/05/24 09:14:39;;;;;;;7.63;3.03;;;;;;;;;;6275590;28;20492;-83
2022/05/24 09:17:50;;;;;;;8.07;3.30;;;;;;;;;;6274601;28;20025;-82
2022/05/24 09:20:51;;;;;;;12.23;4.38;;;;;;;;;;6275897;28;20033;-82
2022/05/24 09:23:57;;;;;;;7.80;4.17;;;;;;;;;;6276497;28;20051;-82
2022/05/24 09:27:07;;;;;;;8.10;4.65;;;;;;;;;;6272689;28;20074;-82
2022/05/24 09:30:20;;;;;;;14.65;5.38;;;;;;;;;;6274591;28;20039;-81
2022/05/24 09:33:24;;;;;;;7.15;3.63;;;;;;;;;;6273989;28;20720;-81
2022/05/24 09:36:29;;;;;;;10.25;4.68;;;;;;;;;;6276743;28;20077;-81
2022/05/24 09:39:35;;;;;;;6.32;3.70;;;;;;;;;;6274689;28;20025;-82
2022/05/24 09:42:36;;;;;;;7.05;3.80;;;;;;;;;;6273569;28;20028;-81
2022/05/24 09:45:38;;;;;;;6.13;4.45;;;;;;;;;;6276433;28;20301;-81
2022/05/24 09:48:38;;;;;;;;;;;;;;;;;;6275534;28;20021;-81
2022/05/24 09:51:40;;;;;;;6.55;3.80;;;;;;;;;;6275390;28;20414;-81
2022/05/24 09:54:53;;;;;;;6.78;4.00;;;;;;;;;;6273882;28;20031;-81
2022/05/24 09:57:54;;;;;;;10.10;4.38;;;;;;;;;;6271778;28;20013;-82
2022/05/24 10:00:57;;;;;;;6.80;3.57;;;;;;;;;;6274564;28;20021;-81
2022/05/24 10:04:16;;;;;;;9.15;4.57;;;;;;;;;;6275910;28;20040;-82
2022/05/24 10:07:27;;;;;;;8.18;4.40;;;;;;;;;;6274173;28;20425;-82
2022/05/24 10:10:29;;;;;;;5.70;3.67;;;;;;;;;;6268293;28;20156;-82
2022/05/24 10:13:37;;;;;;;7.47;4.00;;;;;;;;;;6273225;28;20041;-82
2022/05/24 10:16:43;;;;;;;9.30;4.25;;;;;;;;;;6274496;28;20052;-83
2022/05/24 10:19:50;;;;;;;9.35;5.50;;;;;;;;;;6273450;28;20079;-82
2022/05/24 10:23:09;;;;;;;11.93;5.40;;;;;;;;;;6267125;28;20064;-82
2022/05/24 10:26:09;;;;;;;7.68;4.38;;;;;;;;;;6269921;28;20018;-82
2022/05/24 10:29:12;;;;;;;7.40;4.00;;;;;;;;;;6285068;28;20439;-82
2022/05/24 10:38:17;;;;;;;8.25;4.55;;;;;;;;;;6281820;28;20820;-82
2022/05/24 10:39:07;;;;;;;6.18;4.35;;;;;;;;;;6282192;28;20037;-83
2022/05/24 10:42:16;;;;;;;10.90;4.47;;;;;;;;;;6268374;28;20017;-83
2022/05/24 10:45:20;;;;;;;14.00;3.88;;;;;;;;;;6274692;28;20021;-83
2022/05/24 10:48:26;;;;;;;11.43;5.75;;;;;;;;;;6258754;28;20025;-81
2022/05/24 10:51:34;;;;;;;13.43;6.75;;;;;;;;;;6256298;28;20809;-81
2022/05/24 10:54:45;;;;;;;12.05;6.78;;;;;;;;;;6274054;28;20021;-81
2022/05/24 10:57:54;;;;;;;9.80;5.38;;;;;;;;;;6265078;28;20013;-82
2022/05/24 11:01:08;;;;;;;8.73;5.07;;;;;;;;;;6262692;28;20045;-83
2022/05/24 11:04:13;;;;;;;8.27;4.85;;;;;;;;;;6266758;28;20055;-82
2022/05/24 11:07:16;;;;;;;8.82;4.40;;;;;;;;;;6262675;28;20017;-82
2022/05/24 11:10:30;;;;;;;10.38;4.78;;;;;;;;;;6271588;28;20017;-81
2022/05/24 11:13:37;;;;;;;8.50;5.05;;;;;;;;;;6288404;28;20049;-81
2022/05/24 11:16:42;;;;;;;9.95;6.38;;;;;;;;;;6273300;28;20641;-82
2022/05/24 11:19:44;;;;;;;9.50;6.65;;;;;;;;;;6272998;28;20045;-81
2022/05/24 11:22:56;;;;;;;8.02;5.55;;;;;;;;;;6272989;28;20109;-81
2022/05/24 11:26:16;;;;;;;11.85;6.78;;;;;;;;;;6272885;28;20013;-81
2022/05/24 11:29:22;;;;;;;11.90;6.70;;;;;;;;;;6259295;28;20029;-81
2022/05/24 11:32:44;;;;;;;9.57;5.03;;;;;;;;;;6272094;28;20036;-81
2022/05/24 11:35:45;;;;;;;8.75;4.90;;;;;;;;;;6269649;28;20024;-80
2022/05/24 11:38:47;;;;;;;7.63;4.85;;;;;;;;;;6263153;28;20070;-80
2022/05/24 11:41:47;;;;;;;9.68;5.97;;;;;;;;;;6254819;28;20538;-80
2022/05/24 11:44:48;;;;;;;9.50;4.10;;;;;;;;;;6262521;28;20021;-79
2022/05/24 11:47:48;;;;;;;7.07;4.57;;;;;;;;;;6259593;28;20036;-80
2022/05/24 11:50:53;;;;;;;9.03;3.90;;;;;;;;;;6254705;28;20275;-80
2022/05/24 11:53:53;;;;;;;6.68;3.92;;;;;;;;;;6260951;28;20069;-80
2022/05/24 11:57:14;;;;;;;7.97;4.00;;;;;;;;;;6267031;28;21622;-80
2022/05/24 12:00:29;;;;;;;8.45;4.28;;;;;;;;;;6258441;28;20033;-80
2022/05/24 12:10:22;;;;;;;7.30;3.85;;;;;;;;;;6265304;28;20112;-83
2022/05/24 12:13:22;;;;;;;9.90;3.60;;;;;;;;;;6272130;28;20035;-83
2022/05/24 12:16:45;;;;;;;6.67;3.13;;;;;;;;;;6269030;28;20583;-83
2022/05/24 12:19:49;;;;;;;9.85;5.00;;;;;;;;;;6254106;28;20038;-83
2022/05/24 12:23:14;;;;;;;8.02;3.88;;;;;;;;;;6263696;28;20552;-83
2022/05/24 12:26:15;;;;;;;7.18;4.38;;;;;;;;;;6260512;28;20116;-83
2022/05/24 12:29:17;;;;;;;6.68;4.28;;;;;;;;;;6277638;28;20031;-83
2022/05/24 12:32:18;;;;;;;8.68;4.45;;;;;;;;;;6275706;28;20017;-83
2022/05/24 12:35:19;;;;;;;10.95;4.05;;;;;;;;;;6272823;28;20025;-83
2022/05/24 12:38:22;;;;;;;5.50;3.13;;;;;;;;;;6267588;28;20033;-83
2022/05/24 12:41:48;;;;;;;10.05;3.55;;;;;;;;;;6267117;28;20034;-83
2022/05/24 12:44:49;;;;;;;6.35;3.72;;;;;;;;;;6267893;28;20037;-84
2022/05/24 12:47:50;;;;;;;6.53;3.77;;;;;;;;;;6265667;28;20025;-84
2022/05/24 12:50:58;;;;;;;8.52;4.10;;;;;;;;;;6266136;28;20037;-83
2022/05/24 12:54:08;;;;;;;7.88;4.40;;;;;;;;;;6266348;28;20159;-83
2022/05/24 12:57:12;;;;;;;9.68;3.50;;;;;;;;;;6276783;28;20186;-84
2022/05/24 13:00:14;;;;;;;8.07;3.83;;;;;;;;;;6273406;28;20090;-84
2022/05/24 13:03:22;;;;;;;5.63;3.03;;;;;;;;;;6263005;28;20039;-84
2022/05/24 13:06:24;;;;;;;6.47;3.67;;;;;;;;;;6264818;28;20032;-84
2022/05/24 13:09:27;;;;;;;6.70;3.97;;;;;;;;;;6266573;28;20055;-84
2022/05/24 13:12:28;;;;;;;5.78;3.03;;;;;;;;;;6269358;28;20028;-84
2022/05/24 13:15:32;;;;;;;9.68;3.35;;;;;;;;;;6262043;28;20051;-81
2022/05/24 13:18:34;;;;;;;6.38;3.70;;;;;;;;;;6270330;28;20067;-82
2022/05/24 13:21:35;;;;;;;6.03;2.92;;;;;;;;;;6266829;28;20033;-82
2022/05/24 13:24:46;;;;;;;5.68;3.28;;;;;;;;;;6276866;28;20043;-83
2022/05/24 13:27:49;;;;;;;9.10;3.20;;;;;;;;;;6280981;28;20048;-83
2022/05/24 13:34:16;;;;;;;7.50;3.00;;;;;;;;;;6268175;28;20025;-82
2022/05/24 13:37:16;;;;;;;4.55;3.10;;;;;;;;;;6281478;28;20060;-83
2022/05/24 13:40:17;;;;;;;7.80;3.35;;;;;;;;;;6277017;28;20082;-83
2022/05/24 13:43:37;;;;;;;7.90;3.33;;;;;;;;;;6278039;28;20025;-84
2022/05/24 13:46:49;;;;;;;4.30;3.10;;;;;;;;;;6270355;28;20689;-84
2022/05/24 13:49:49;;;;;;;7.13;3.97;;;;;;;;;;6265524;28;20017;-84
2022/05/24 13:52:52;;;;;;;6.75;3.20;;;;;;;;;;6271327;28;20021;-84
2022/05/24 13:55:54;;;;;;;8.40;4.22;;;;;;;;;;6275424;28;20043;-84
2022/05/24 13:59:06;;;;;;;7.97;4.40;;;;;;;;;;6279158;28;20528;-83
2022/05/24 14:02:10;;;;;;;5.00;3.58;;;;;;;;;;6268374;28;20021;-83
2022/05/24 14:05:23;;;;;;;7.85;3.40;;;;;;;;;;6274557;28;20082;-83
2022/05/24 14:08:23;;;;;;;8.68;3.90;;;;;;;;;;6267718;28;20052;-83
2022/05/24 14:11:25;;;;;;;5.27;3.20;;;;;;;;;;6272499;28;20040;-83
2022/05/24 14:14:26;;;;;;;11.88;4.30;;;;;;;;;;6281000;28;20420;-84
2022/05/24 14:17:26;;;;;;;7.63;3.95;;;;;;;;;;6277136;28;20021;-84
2022/05/24 14:20:26;;;;;;;11.00;3.90;;;;;;;;;;6265156;28;20079;-83
2022/05/24 14:23:27;;;;;;;7.73;4.93;;;;;;;;;;6272958;28;20108;-83
2022/05/24 14:26:27;;;;;;;;;;;;;;;;;;6273223;28;20028;-83
2022/05/24 14:29:30;;;;;;;8.87;3.70;;;;;;;;;;6268242;28;19960;-84
2022/05/24 14:32:31;;;;;;;7.97;3.72;;;;;;;;;;6272250;28;20028;-84
2022/05/24 14:35:31;;;;;;;8.00;3.45;;;;;;;;;;6267941;28;20081;-83
2022/05/24 14:38:32;;;;;;;9.53;3.83;;;;;;;;;;6257126;28;20126;-83
2022/05/24 14:41:34;;;;;;;7.78;4.15;;;;;;;;;;6269363;28;20084;-83
2022/05/24 14:44:37;;;;;;;4.68;3.30;;;;;;;;;;6276566;28;20056;-84
2022/05/24 14:47:37;;;;;;;10.25;4.10;;;;;;;;;;6274732;28;20396;-84
2022/05/24 14:50:38;;;;;;;6.80;3.33;;;;;;;;;;6275311;28;20029;-84
2022/05/24 14:53:39;;;;;;;7.93;4.13;;;;;;;;;;6274123;28;20021;-84
2022/05/24 14:56:39;;;;;;;;;;;;;;;;;;6277794;28;20021;-83
2022/05/24 14:59:42;;;;;;;5.40;3.58;;;;;;;;;;6275713;28;19916;-83
2022/05/24 15:02:43;;;;;;;6.32;3.35;;;;;;;;;;6273565;28;20399;-83
2022/05/24 15:05:43;;;;;;;11.90;3.43;;;;;;;;;;6273037;28;20029;-83
2022/05/24 15:15:22;;;;;;;9.48;4.20;;;;;;;;;;6272103;28;20032;-83
2022/05/24 15:18:23;;;;;;;8.35;5.32;;;;;;;;;;6259737;28;20053;-83
2022/05/24 15:21:25;;;;;;;7.07;4.03;;;;;;;;;;6263440;28;20082;-83
2022/05/24 15:24:27;;;;;;;7.35;3.67;;;;;;;;;;6269296;28;20119;-84
2022/05/24 15:27:28;;;;;;;6.85;4.20;;;;;;;;;;6254660;28;20018;-83
2022/05/24 15:30:29;;;;;;;8.60;5.70;;;;;;;;;;6264304;28;20048;-84
2022/05/24 15:33:29;;;;;;;9.67;5.40;;;;;;;;;;6274524;28;20575;-83
2022/05/24 15:36:30;;;;;;;7.57;4.67;;;;;;;;;;6261509;28;20021;-83
2022/05/24 15:39:30;;;;;;;9.35;3.90;;;;;;;;;;6266359;28;20448;-83
2022/05/24 15:42:31;;;;;;;9.87;4.43;;;;;;;;;;6268848;28;20105;-83
2022/05/24 15:45:32;;;;;;;14.77;7.13;;;;;;;;;;6271781;28;20021;-83
2022/05/24 15:48:34;;;;;;;9.65;4.43;;;;;;;;;;6268452;28;20115;-83
2022/05/24 15:51:34;;;;;;;7.18;4.75;;;;;;;;;;6265518;28;20074;-84
2022/05/24 15:54:35;;;;;;;9.53;4.67;;;;;;;;;;6262498;28;20055;-83
2022/05/24 15:57:35;;;;;;;6.83;4.40;;;;;;;;;;6263838;28;20112;-83
2022/05/24 16:00:36;;;;;;;8.63;4.87;;;;;;;;;;6262085;28;20087;-84
2022/05/24 16:03:36;;;;;;;10.57;4.93;;;;;;;;;;6269081;28;20031;-83
2022/05/24 16:10:06;;;;;;;9.27;4.88;;;;;;;;;;6280040;28;20115;-83
2022/05/24 16:13:08;;;;;;;11.90;5.43;;;;;;;;;;6267785;28;20648;-84
2022/05/24 16:16:09;;;;;;;9.63;5.43;;;;;;;;;;6273625;28;20017;-83
2022/05/24 16:19:09;;;;;;;8.60;6.10;;;;;;;;;;6274446;28;20056;-84
2022/05/24 16:22:10;;;;;;;8.53;5.20;;;;;;;;;;6274882;28;20025;-84
2022/05/24 16:25:11;;;;;;;8.43;4.53;;;;;;;;;;6270211;28;20439;-83
2022/05/24 16:28:11;;;;;;;8.90;4.97;;;;;;;;;;6273300;28;20116;-83
2022/05/24 16:31:11;;;;;;;10.33;6.30;;;;;;;;;;6271628;28;20009;-83
2022/05/24 16:34:12;;;;;;;8.17;4.67;;;;;;;;;;6267119;28;20096;-83
2022/05/24 16:37:12;;;;;;;9.37;5.30;;;;;;;;;;6271486;28;20024;-83
2022/05/24 16:40:13;;;;;;;9.50;5.33;;;;;;;;;;6266631;28;20028;-83
2022/05/24 16:43:13;;;;;;;10.47;5.37;;;;;;;;;;6262983;28;20025;-82
2022/05/24 16:46:13;;;;;;;8.90;5.33;;;;;;;;;;6268710;28;20028;-82
2022/05/24 16:49:13;;;;;;;10.97;6.77;;;;;;;;;;6275604;28;20477;-82
2022/05/24 16:52:15;;;;;;;10.60;5.73;;;;;;;;;;6278929;28;20419;-83
2022/05/24 16:58:43;;;;;;;13.27;6.63;;;;;;;;;;6276863;28;20036;-82
2022/05/24 17:01:43;;;;;;;14.10;8.23;;;;;;;;;;6273361;28;20025;-81
2022/05/24 17:04:44;;;;;;;13.43;8.00;;;;;;;;;;6274099;28;20036;-82
2022/05/24 17:07:44;;;;;;;10.43;7.43;;;;;;;;;;6267118;28;20017;-82
2022/05/24 17:10:45;;;;;;;14.23;9.47;;;;;;;;;;6268449;28;20431;-82
2022/05/24 17:13:45;;;;;;;22.07;12.27;;;;;;;;;;6261353;28;20071;-81
2022/05/24 17:16:45;;;;;;;25.30;14.47;;;;;;;;;;6259952;28;20740;-81
2022/05/24 17:19:45;;;;;;;22.20;13.70;;;;;;;;;;6262268;28;20723;-81
2022/05/24 17:22:46;;;;;;;24.43;12.40;;;;;;;;;;6262700;28;20034;-81
2022/05/24 17:25:46;;;;;;;21.93;12.17;;;;;;;;;;6269319;28;20468;-81
2022/05/24 17:28:47;;;;;;;17.13;10.70;;;;;;;;;;6256814;28;20102;-81
2022/05/24 17:31:49;;;;;;;17.87;10.57;;;;;;;;;;6260453;28;20028;-82
2022/05/24 17:34:50;;;;;;;15.88;9.00;;;;;;;;;;6257148;28;20033;-81
2022/05/24 17:37:50;;;;;;;13.83;9.20;;;;;;;;;;6259921;28;20091;-81
2022/05/24 17:40:53;;;;;;;14.63;9.10;;;;;;;;;;6265232;28;20025;-81
2022/05/24 17:43:53;;;;;;;17.75;10.88;;;;;;;;;;6274622;28;20017;-81
2022/05/24 17:46:53;;;;;;;17.17;10.57;;;;;;;;;;6267834;28;20025;-81
2022/05/24 17:49:54;;;;;;;11.27;8.13;;;;;;;;;;6271579;28;20025;-81
2022/05/24 17:52:54;;;;;;;14.47;9.20;;;;;;;;;;6273511;28;20017;-81
2022/05/24 17:55:54;;;;;;;15.40;9.83;;;;;;;;;;6270726;28;20047;-81
2022/05/24 17:58:54;;;;;;;16.07;9.43;;;;;;;;;;6266080;28;20024;-81
2022/05/24 18:01:55;;;;;;;17.80;9.00;;;;;;;;;;6262429;28;20025;-81
2022/05/24 18:04:55;;;;;;;17.20;9.83;;;;;;;;;;6263663;28;20025;-81
2022/05/24 18:07:55;;;;;;;13.50;9.20;;;;;;;;;;6257419;28;20017;-81
2022/05/24 18:10:56;;;;;;;16.67;9.57;;;;;;;;;;6262303;28;20021;-81
2022/05/24 18:13:56;;;;;;;14.73;9.43;;;;;;;;;;6264339;28;20074;-81
2022/05/24 18:16:56;;;;;;;13.90;9.53;;;;;;;;;;6268597;28;20020;-81
2022/05/24 18:19:57;;;;;;;19.07;10.67;;;;;;;;;;6255042;28;20045;-81
2022/05/24 18:23:12;;;;;;;15.00;10.90;;;;;;;;;;6259690;28;20071;-81
2022/05/24 18:33:06;;;;;;;16.52;11.45;;;;;;;;;;6273878;28;20036;-79
2022/05/24 18:36:07;;;;;;;22.50;14.77;;;;;;;;;;6273392;28;20456;-79
2022/05/24 18:39:07;;;;;;;19.23;11.00;;;;;;;;;;6273083;28;20025;-79
2022/05/24 18:42:08;;;;;;;17.70;11.23;;;;;;;;;;6273248;28;20032;-79
2022/05/24 18:45:11;;;;;;;19.00;13.60;;;;;;;;;;6272290;28;20037;-79
2022/05/24 18:48:12;;;;;;;22.58;16.33;;;;;;;;;;6273737;28;20032;-79
2022/05/24 18:51:13;;;;;;;33.80;21.57;;;;;;;;;;6269132;28;20087;-79
2022/05/24 18:54:13;;;;;;;27.93;20.20;;;;;;;;;;6270716;28;20033;-78
2022/05/24 18:57:14;;;;;;;28.80;18.27;;;;;;;;;;6264097;28;20816;-78
2022/05/24 19:00:15;;;;;;;27.20;18.97;;;;;;;;;;6260864;28;20056;-77
2022/05/24 19:03:15;;;;;;;22.70;16.73;;;;;;;;;;6256535;28;20283;-77
2022/05/24 19:06:15;;;;;;;21.80;17.97;;;;;;;;;;6256549;28;20398;-77
2022/05/24 19:09:16;;;;;;;25.67;17.70;;;;;;;;;;6257571;28;20083;-79
2022/05/24 19:12:17;;;;;;;23.53;15.77;;;;;;;;;;6258672;28;20054;-79
2022/05/24 19:15:17;;;;;;;21.23;14.07;;;;;;;;;;6258439;28;20010;-79
2022/05/24 19:18:18;;;;;;;21.10;15.53;;;;;;;;;;6241380;28;20298;-79
2022/05/24 19:21:19;;;;;;;22.57;16.53;;;;;;;;;;6256737;28;20467;-77
2022/05/24 19:24:19;;;;;;;21.10;15.43;;;;;;;;;;6266086;28;20048;-78
2022/05/24 19:27:21;;;;;;;24.43;15.77;;;;;;;;;;6267074;28;20025;-77